Flight Track Log - Related Links

Times and Time Zones

All times are in EDT time to prevent confusion due to time zone crossing. See the ASQ5107 flight status page for this flight to view local times or setup timezone preferences in your user account.

Time Position Orientation Groundspeed Altitude Reporting Facility
EDT Latitude Longitude Course Direction KTS MPH feet Rate Location/Type
Fri 05:38:45 PM 33.6286 -84.4803 86° East 353 406 2,500  Level Atlanta Center
Fri 05:39:17 PM 33.6167 -84.5167 248° West 230 265 2,900 1,814 Climbing Atlanta TRACON
Fri 05:40:11 PM 33.5833 -84.5833 239° Southwest 276 318 5,100 2,182 Climbing Atlanta TRACON
Fri 05:40:45 PM 33.5342 -84.5872 184° South 249 287 6,100 2,489 Climbing Atlanta Center
Fri 05:41:45 PM 33.4633 -84.5492 156° South 302 348 9,000 2,350 Climbing Atlanta Center
Fri 05:42:45 PM 33.4575 -84.4472 94° East 290 334 10,800 1,150 Climbing Atlanta Center
Fri 05:43:45 PM 33.4558 -84.3450 91° East 313 360 11,300 500 Climbing Atlanta Center
Fri 05:44:00 PM 33.5769 -83.8333 86° East  Level Estimated
Fri 05:44:45 PM 33.4644 -84.2156 85° East 364 419 11,800  Level Atlanta Center
Fri 05:45:45 PM 33.4833 -84.0836 80° East 397 457 12,900 1,100 Climbing Atlanta Center
Fri 05:46:45 PM 33.5019 -83.9517 80° East 402 463 14,000 1,000 Climbing Atlanta Center
Fri 05:47:45 PM 33.5206 -83.8169 81° East 407 468 14,900 850 Climbing Atlanta Center
Fri 05:48:45 PM 33.5392 -83.6825 81° East 413 475 15,700 650 Climbing Atlanta Center
Fri 05:49:45 PM 33.5575 -83.5428 81° East 413 475 16,200 500 Climbing Atlanta Center
Fri 05:50:45 PM 33.5733 -83.3956 83° East 431 496 16,700 500 Climbing Atlanta Center
Fri 05:51:45 PM 33.5872 -83.2508 83° East 431 496 17,200 500 Climbing Atlanta Center
Fri 05:52:45 PM 33.6028 -83.1036 83° East 444 511 17,700 150 Climbing Atlanta Center
Fri 05:53:45 PM 33.6222 -82.9411 82° East 444 511 17,500 -1,050 Descending Atlanta Center
Fri 05:54:45 PM 33.6000 -82.7992 101° East 443 510 15,600 -1,900 Descending Atlanta Center
Fri 05:55:45 PM 33.5633 -82.6653 108° East 428 493 13,700 -1,950 Descending Atlanta Center
Fri 05:56:45 PM 33.5219 -82.5364 111° Southeast 423 487 11,700 -1,550 Descending Atlanta Center
Fri 05:57:45 PM 33.4978 -82.4369 106° East 402 463 10,600 -1,200 Descending Atlanta Center
Fri 05:58:45 PM 33.4669 -82.3181 107° East 367 422 9,300 -1,650 Descending Atlanta Center
Fri 05:59:45 PM 33.4406 -82.2192 108° East 331 381 7,300 -2,300 Descending Atlanta Center
Fri 06:00:45 PM 33.4142 -82.1300 110° East 303 349 4,700 -1,750 Descending Atlanta Center
Fri 06:01:45 PM 33.3714 -82.0736 132° Southeast 249 287 3,800 -950 Descending Atlanta Center
Fri 06:02:45 PM 33.3189 -82.0450 156° South 221 254 2,800 -1,050 Descending Atlanta Center
Fri 06:03:45 PM 33.2892 -82.0086 134° Southeast 190 219 1,700 -1,100 Descending Atlanta Center
Fri 06:05:00 PM 33.3667 -81.9500 108° East  Level FlightAware Approximate
Fri 06:12:00 PM 33.3699 -81.9645 108° East  Level Estimated
Fri 06:13:00 PM 33.3699 -81.9645 108° East  Level Estimated
Fri 06:14:00 PM 33.3699 -81.9645 108° East  Level Estimated

Login

Don't have an account? Register now (free) for customized features, flight alerts, and more!